Time;durP1;ratioP1;P1;durP2;ratioP2;P2;SDS_P1;SDS_P2;PMS_P1;PMS_P2;Temp;Humidity;BMP_temperature;BMP_pressure;BME280_temperature;BME280_humidity;BME280_pressure;Samples;Min_cycle;Max_cycle;Signal;HPM_P1;HPM_P2
2022/03/21 00:01:48;;;;;;;22.30;11.57;;;;;;;3.03;93.12;99656.63;5076362;28;20025;-67
2022/03/21 00:04:13;;;;;;;19.58;12.15;;;;;;;3.07;92.85;99666.28;5081599;28;20308;-67
2022/03/21 00:06:40;;;;;;;22.02;10.88;;;;;;;3.10;93.25;99662.03;5086023;28;20086;-67
2022/03/21 00:09:06;;;;;;;27.33;11.18;;;;;;;3.06;92.61;99664.50;5085914;28;20075;-67
2022/03/21 00:11:33;;;;;;;28.80;13.85;;;;;;;2.96;92.89;99660.81;5085872;28;20312;-67
2022/03/21 00:13:58;;;;;;;35.65;13.40;;;;;;;3.06;93.26;99665.41;5067879;28;20021;-67
2022/03/21 00:16:24;;;;;;;26.60;13.02;;;;;;;3.02;93.56;99663.56;5065843;28;20032;-67
2022/03/21 00:18:50;;;;;;;29.95;13.70;;;;;;;3.02;93.26;99668.78;5065761;28;20047;-67
2022/03/21 00:21:17;;;;;;;22.42;12.30;;;;;;;2.93;93.47;99662.41;5065738;28;20025;-67
2022/03/21 00:23:42;;;;;;;23.88;12.43;;;;;;;2.76;93.14;99651.59;5065645;28;20058;-67
2022/03/21 00:26:08;;;;;;;36.72;14.55;;;;;;;2.69;94.63;99652.22;5065628;28;20029;-67
2022/03/21 00:28:33;;;;;;;29.17;13.27;;;;;;;2.75;95.20;99655.00;5065553;28;20363;-67
2022/03/21 00:31:00;;;;;;;32.22;12.02;;;;;;;2.82;95.34;99656.97;5070409;28;20027;-67
2022/03/21 00:33:25;;;;;;;29.83;13.40;;;;;;;2.77;95.03;99655.94;5071599;28;20021;-67
2022/03/21 00:35:51;;;;;;;27.40;13.02;;;;;;;2.87;95.39;99663.16;5074489;28;20092;-67
2022/03/21 00:38:18;;;;;;;33.67;15.38;;;;;;;2.88;94.49;99664.91;5085125;28;20044;-67
2022/03/21 00:40:45;;;;;;;31.75;14.45;;;;;;;2.91;95.01;99670.19;5066910;28;20028;-67
2022/03/21 00:43:17;;;;;;;41.00;13.52;;;;;;;2.83;94.37;99663.91;5065361;28;20056;-67
2022/03/21 00:45:42;;;;;;;23.83;12.97;;;;;;;2.83;94.27;99666.50;5065285;28;20017;-67
2022/03/21 00:48:08;;;;;;;22.27;11.35;;;;;;;2.77;94.23;99666.34;5072126;28;20023;-67
2022/03/21 00:50:34;;;;;;;21.77;11.60;;;;;;;2.71;94.11;99666.16;5082976;28;20020;-67
2022/03/21 00:53:00;;;;;;;25.48;12.20;;;;;;;2.59;93.24;99660.63;5071687;28;20212;-67
2022/03/21 00:55:28;;;;;;;24.45;10.68;;;;;;;2.50;93.45;99665.53;5077845;28;20020;-67
2022/03/21 00:57:55;;;;;;;24.50;12.02;;;;;;;2.47;93.81;99665.50;5084465;28;20028;-67
2022/03/21 01:00:24;;;;;;;20.58;11.32;;;;;;;2.51;93.89;99666.44;5084675;28;20326;-67
2022/03/21 01:02:51;;;;;;;20.73;11.52;;;;;;;2.36;93.74;99668.59;5084639;28;20020;-67
2022/03/21 01:05:17;;;;;;;23.58;11.82;;;;;;;2.34;93.77;99671.13;5084083;28;20250;-67
2022/03/21 01:07:42;;;;;;;25.88;11.27;;;;;;;2.35;93.88;99664.25;5079581;28;20230;-67
2022/03/21 01:10:12;;;;;;;22.23;11.48;;;;;;;2.41;93.95;99675.69;5064947;28;20020;-67
2022/03/21 01:12:37;;;;;;;21.85;11.05;;;;;;;2.36;94.37;99672.06;5076202;28;20040;-67
2022/03/21 01:15:04;;;;;;;28.08;11.88;;;;;;;2.38;94.49;99673.00;5069363;28;20333;-67
2022/03/21 01:17:29;;;;;;;25.45;11.65;;;;;;;2.33;93.69;99677.19;5064686;28;20070;-67
2022/03/21 01:19:55;;;;;;;30.13;11.57;;;;;;;2.11;94.09;99669.59;5064597;28;20243;-67
2022/03/21 01:22:21;;;;;;;22.58;11.88;;;;;;;2.17;94.97;99675.84;5064858;28;20042;-67
2022/03/21 01:24:46;;;;;;;27.10;12.80;;;;;;;2.18;95.49;99679.31;5064555;28;20317;-67
2022/03/21 01:27:12;;;;;;;29.98;10.95;;;;;;;2.16;95.69;99683.59;5077062;28;20024;-67
2022/03/21 01:29:38;;;;;;;27.63;12.52;;;;;;;2.21;95.43;99682.00;5083836;28;20307;-67
2022/03/21 01:32:03;;;;;;;26.23;12.48;;;;;;;2.16;95.19;99678.41;5081426;28;20016;-67
2022/03/21 01:34:29;;;;;;;23.33;10.57;;;;;;;2.17;94.89;99680.16;5064426;28;20016;-67
2022/03/21 01:36:55;;;;;;;28.98;12.10;;;;;;;2.17;94.78;99677.56;5064435;28;20024;-67
2022/03/21 01:39:21;;;;;;;22.60;10.27;;;;;;;1.86;94.62;99672.25;5064292;28;20013;-67
2022/03/21 01:41:46;;;;;;;24.55;11.45;;;;;;;1.87;95.90;99674.03;5064266;28;20067;-67
2022/03/21 01:44:12;;;;;;;23.70;12.70;;;;;;;2.02;96.29;99684.88;5064268;28;20016;-67
2022/03/21 01:46:39;;;;;;;23.40;12.25;;;;;;;2.06;95.53;99676.38;5064191;28;20017;-67
2022/03/21 01:49:06;;;;;;;26.15;12.27;;;;;;;2.03;95.54;99676.28;5064054;28;20020;-67
2022/03/21 01:51:32;;;;;;;22.05;10.48;;;;;;;2.01;95.62;99684.03;5072295;28;20017;-67
2022/03/21 01:56:45;;;;;;;20.50;10.23;;;;;;;2.03;94.49;99677.13;5064091;28;20024;-67
2022/03/21 01:59:12;;;;;;;30.00;10.90;;;;;;;1.99;94.48;99677.88;5064266;28;20204;-67
2022/03/21 02:01:39;;;;;;;27.65;11.13;;;;;;;1.95;93.96;99680.34;5078682;28;20223;-67
2022/03/21 02:04:05;;;;;;;16.73;9.80;;;;;;;1.84;93.83;99669.63;5080179;28;20283;-67
2022/03/21 02:06:32;;;;;;;21.73;11.00;;;;;;;1.81;93.99;99679.03;5082185;28;20016;-67
2022/03/21 02:08:59;;;;;;;24.40;10.85;;;;;;;1.71;93.65;99677.00;5083342;28;20082;-67
2022/03/21 02:11:26;;;;;;;27.50;10.50;;;;;;;1.64;93.42;99675.00;5065268;28;20276;-67
2022/03/21 02:13:53;;;;;;;24.63;11.85;;;;;;;1.59;93.41;99681.78;5064119;28;20123;-67
2022/03/21 02:16:19;;;;;;;22.10;11.50;;;;;;;1.60;94.19;99688.72;5063694;28;20344;-67
2022/03/21 02:18:46;;;;;;;20.27;10.90;;;;;;;1.61;94.37;99685.28;5064074;28;20020;-67
2022/03/21 02:21:21;;;;;;;19.90;10.68;;;;;;;1.57;94.55;99689.50;5063803;28;20054;-67
2022/03/21 02:23:52;;;;;;;20.20;9.45;;;;;;;1.64;94.77;99696.66;5082160;28;20031;-67
2022/03/21 02:26:18;;;;;;;20.67;10.30;;;;;;;1.61;94.25;99688.78;5082019;28;20016;-67
2022/03/21 02:28:45;;;;;;;24.60;10.90;;;;;;;1.49;94.10;99695.28;5078280;28;20286;-67
2022/03/21 02:31:11;;;;;;;20.73;10.38;;;;;;;1.45;93.91;99694.28;5067785;28;20017;-67
2022/03/21 02:33:38;;;;;;;26.10;11.43;;;;;;;1.52;94.38;99697.97;5067717;28;20027;-67
2022/03/21 02:36:03;;;;;;;21.83;10.57;;;;;;;1.52;94.45;99705.75;5067744;28;20145;-67
2022/03/21 02:38:32;;;;;;;24.95;10.57;;;;;;;1.55;94.83;99700.69;5067720;28;20031;-67
2022/03/21 02:40:58;;;;;;;21.42;10.27;;;;;;;1.53;94.75;99705.81;5067634;28;20031;-67
2022/03/21 02:43:23;;;;;;;21.10;9.05;;;;;;;1.56;94.58;99702.44;5083896;28;20021;-67
2022/03/21 02:45:48;;;;;;;21.52;9.75;;;;;;;1.54;94.59;99704.97;5067494;28;20025;-67
2022/03/21 02:48:14;;;;;;;24.58;10.68;;;;;;;1.52;94.82;99710.94;5084417;28;20024;-67
2022/03/21 02:50:56;;;;;;;29.73;12.18;;;;;;;1.29;94.77;99704.09;5086948;28;20118;-67
2022/03/21 02:53:22;;;;;;;25.10;12.73;;;;;;;1.24;95.01;99710.84;5086709;28;20032;-67
2022/03/21 02:55:53;;;;;;;19.02;9.55;;;;;;;1.28;96.09;99711.00;5086824;28;20065;-67
2022/03/21 02:58:19;;;;;;;21.37;11.73;;;;;;;1.26;96.00;99711.75;5087148;28;20296;-67
2022/03/21 03:00:44;;;;;;;21.10;10.57;;;;;;;1.34;96.01;99715.53;5084170;28;20032;-67
2022/03/21 03:03:09;;;;;;;30.90;12.35;;;;;;;1.28;95.47;99720.50;5067205;28;20023;-67
2022/03/21 03:05:35;;;;;;;28.25;11.20;;;;;;;1.32;95.33;99722.34;5075388;28;20027;-67
2022/03/21 03:08:02;;;;;;;20.55;9.27;;;;;;;1.30;95.41;99714.53;5086513;28;20040;-67
2022/03/21 03:10:27;;;;;;;18.05;9.70;;;;;;;1.32;95.28;99709.38;5086457;28;20020;-67
2022/03/21 03:12:53;;;;;;;20.77;10.20;;;;;;;1.30;95.01;99703.28;5086263;28;20020;-67
2022/03/21 03:15:18;;;;;;;22.58;9.75;;;;;;;1.27;94.61;99705.78;5086299;28;20032;-67
2022/03/21 03:17:43;;;;;;;14.30;9.43;;;;;;;1.08;95.64;99705.97;5078679;28;20213;-67
2022/03/21 03:20:10;;;;;;;24.25;10.75;;;;;;;1.19;96.29;99704.63;5069176;28;20325;-67
2022/03/21 03:22:37;;;;;;;29.85;10.13;;;;;;;1.22;96.31;99710.78;5086319;28;20058;-67
2022/03/21 03:25:04;;;;;;;19.63;9.60;;;;;;;1.22;96.30;99715.09;5069191;28;20032;-67
2022/03/21 03:27:31;;;;;;;19.30;10.15;;;;;;;1.14;95.59;99716.56;5066660;28;20320;-67
2022/03/21 03:29:57;;;;;;;15.52;9.13;;;;;;;1.14;96.03;99721.75;5066734;28;20017;-67
2022/03/21 03:32:23;;;;;;;18.20;8.27;;;;;;;1.21;96.44;99728.91;5067830;28;20028;-67
2022/03/21 03:34:49;;;;;;;18.77;8.30;;;;;;;1.24;96.55;99724.69;5086374;28;20025;-67
2022/03/21 03:37:16;;;;;;;23.80;9.90;;;;;;;1.27;95.50;99734.28;5085556;28;20066;-67
2022/03/21 03:39:41;;;;;;;20.02;9.75;;;;;;;1.27;94.70;99723.91;5076967;28;20366;-67
2022/03/21 03:42:07;;;;;;;18.02;8.93;;;;;;;1.21;94.36;99723.72;5070096;28;20017;-67
2022/03/21 03:44:32;;;;;;;21.35;9.82;;;;;;;1.21;94.16;99726.31;5085943;28;20016;-67
2022/03/21 03:46:58;;;;;;;17.33;8.75;;;;;;;1.14;94.09;99722.59;5075996;28;20066;-67
2022/03/21 03:49:23;;;;;;;19.77;8.02;;;;;;;1.06;93.79;99723.16;5066716;28;20089;-67
2022/03/21 03:51:49;;;;;;;20.40;8.80;;;;;;;0.89;94.31;99719.97;5067990;28;20239;-67
2022/03/21 03:54:15;;;;;;;14.98;7.68;;;;;;;0.84;94.64;99725.81;5066272;28;20020;-67
2022/03/21 03:56:40;;;;;;;17.30;10.48;;;;;;;0.79;95.63;99725.66;5066222;28;20317;-67
2022/03/21 03:59:06;;;;;;;21.35;10.30;;;;;;;0.86;95.69;99732.84;5078082;28;20207;-67
2022/03/21 04:01:31;;;;;;;23.25;10.13;;;;;;;0.87;96.87;99728.53;5078697;28;20024;-67
2022/03/21 04:03:59;;;;;;;24.33;11.27;;;;;;;0.91;96.13;99728.69;5066089;28;20067;-67
2022/03/21 04:06:25;;;;;;;23.50;10.68;;;;;;;0.99;96.02;99734.16;5066265;28;20088;-67
2022/03/21 04:08:51;;;;;;;22.25;10.75;;;;;;;0.96;95.89;99731.44;5065897;28;20024;-67
2022/03/21 04:11:17;;;;;;;15.57;8.25;;;;;;;0.89;96.15;99730.34;5065855;28;20216;-67
2022/03/21 04:13:44;;;;;;;20.65;9.90;;;;;;;0.88;95.73;99738.09;5065922;28;20036;-67
2022/03/21 04:16:09;;;;;;;19.67;9.45;;;;;;;0.87;95.44;99736.31;5065771;28;20103;-67
2022/03/21 04:18:36;;;;;;;23.17;9.07;;;;;;;0.77;94.77;99734.22;5077842;28;20334;-67
2022/03/21 04:21:02;;;;;;;17.55;9.30;;;;;;;0.71;94.21;99744.34;5070026;28;20025;-67
2022/03/21 04:23:28;;;;;;;15.32;9.52;;;;;;;0.65;94.65;99746.72;5065738;28;20031;-67
2022/03/21 04:25:53;;;;;;;16.20;9.40;;;;;;;0.72;94.64;99735.72;5065940;28;20021;-67
2022/03/21 04:28:19;;;;;;;17.88;9.55;;;;;;;0.77;94.96;99744.56;5065560;28;20025;-67
2022/03/21 04:30:44;;;;;;;26.85;10.75;;;;;;;0.78;95.00;99746.31;5065587;28;20340;-67
2022/03/21 04:33:10;;;;;;;18.23;10.25;;;;;;;0.79;94.43;99743.78;5065819;28;20385;-67
2022/03/21 04:35:37;;;;;;;17.75;9.82;;;;;;;0.75;94.37;99743.63;5064411;28;20228;-67
2022/03/21 04:38:04;;;;;;;17.75;8.65;;;;;;;0.69;94.59;99746.88;5072588;28;20291;-67
2022/03/21 04:40:30;;;;;;;18.02;9.00;;;;;;;0.43;94.90;99751.91;5064484;28;20032;-67
2022/03/21 04:42:55;;;;;;;19.73;9.90;;;;;;;0.49;95.99;99750.44;5067377;28;20024;-67
2022/03/21 04:45:21;;;;;;;19.10;10.02;;;;;;;0.52;95.32;99757.44;5084091;28;20017;-67
2022/03/21 04:47:46;;;;;;;17.58;9.15;;;;;;;0.50;95.75;99759.09;5074353;28;20031;-67
2022/03/21 04:50:13;;;;;;;19.88;9.35;;;;;;;0.42;95.00;99760.50;5069262;28;20099;-67
2022/03/21 04:52:39;;;;;;;19.98;8.25;;;;;;;0.44;95.42;99767.50;5075314;28;20029;-67
2022/03/21 04:55:07;;;;;;;30.52;10.25;;;;;;;0.42;95.72;99773.47;5079504;28;20032;-67
2022/03/21 04:57:35;;;;;;;17.30;9.13;;;;;;;0.48;95.40;99765.94;5083609;28;20308;-67
2022/03/21 05:00:01;;;;;;;24.25;10.02;;;;;;;0.54;95.08;99771.34;5083520;28;20040;-67
2022/03/21 05:02:26;;;;;;;15.75;8.32;;;;;;;0.57;94.63;99772.31;5082813;28;20024;-67
2022/03/21 05:04:52;;;;;;;16.75;8.77;;;;;;;0.44;94.77;99764.06;5084046;28;20016;-67
2022/03/21 05:07:17;;;;;;;16.42;8.63;;;;;;;0.42;94.91;99766.59;5075886;28;20016;-67
2022/03/21 05:09:44;;;;;;;19.00;8.13;;;;;;;0.44;94.83;99761.47;5078743;28;20259;-67
2022/03/21 05:12:10;;;;;;;24.50;10.18;;;;;;;0.39;94.93;99765.56;5084702;28;20087;-67
2022/03/21 05:14:36;;;;;;;17.80;9.15;;;;;;;0.35;95.80;99774.94;5084758;28;20040;-67
2022/03/21 05:17:02;;;;;;;28.45;9.52;;;;;;;0.29;95.66;99773.81;5084726;28;20066;-67
2022/03/21 05:19:28;;;;;;;13.93;7.88;;;;;;;0.36;95.61;99770.63;5084565;28;20042;-67
2022/03/21 05:21:53;;;;;;;15.85;9.07;;;;;;;0.37;95.21;99774.97;5084585;28;20051;-67
2022/03/21 05:32:31;;;;;;;15.70;7.13;;;;;;;0.31;94.23;99773.03;5084460;28;20390;-67
2022/03/21 05:37:40;;;;;;;19.92;9.13;;;;;;;0.09;95.70;99779.94;5084330;28;20020;-67
2022/03/21 05:42:52;;;;;;;12.65;7.30;;;;;;;0.12;94.93;99790.41;5084302;28;20023;-67
2022/03/21 05:45:19;;;;;;;13.65;7.32;;;;;;;0.25;95.15;99792.66;5084184;28;20080;-67
2022/03/21 05:50:34;;;;;;;16.25;8.38;;;;;;;0.49;93.98;99799.66;5084190;28;20024;-67
2022/03/21 05:52:59;;;;;;;17.35;8.60;;;;;;;0.54;93.74;99802.44;5084376;28;20020;-67
2022/03/21 05:55:25;;;;;;;19.67;8.52;;;;;;;0.50;94.04;99800.56;5084127;28;20024;-67
2022/03/21 05:57:50;;;;;;;13.48;7.78;;;;;;;0.60;94.08;99807.84;5084109;28;20024;-67
2022/03/21 06:00:22;;;;;;;21.27;8.82;;;;;;;0.71;93.97;99806.53;5083820;28;20024;-67
2022/03/21 06:02:48;;;;;;;13.73;7.85;;;;;;;0.77;93.24;99806.75;5082271;28;20047;-67
2022/03/21 06:05:14;;;;;;;16.02;8.23;;;;;;;0.59;92.55;99813.81;5084019;28;20029;-67
2022/03/21 06:07:40;;;;;;;15.27;8.15;;;;;;;0.51;93.18;99805.78;5083853;28;20027;-67
2022/03/21 06:10:06;;;;;;;17.75;8.60;;;;;;;0.58;93.95;99809.47;5083907;28;20025;-67
2022/03/21 06:12:31;;;;;;;20.83;9.35;;;;;;;0.80;93.71;99809.47;5083873;28;20032;-67
2022/03/21 06:14:57;;;;;;;18.70;9.52;;;;;;;1.03;93.62;99821.56;5083773;28;20048;-67
2022/03/21 06:17:22;;;;;;;18.10;8.40;;;;;;;1.16;93.23;99818.59;5083950;28;20087;-67
2022/03/21 06:19:48;;;;;;;17.70;8.18;;;;;;;1.45;92.56;99829.19;5083867;28;20251;-67
2022/03/21 06:22:13;;;;;;;12.27;7.47;;;;;;;1.70;92.07;99838.69;5083844;28;20087;-67
2022/03/21 06:24:39;;;;;;;15.30;8.07;;;;;;;1.94;90.97;99843.03;5083844;28;20103;-67
2022/03/21 06:27:04;;;;;;;17.55;7.90;;;;;;;2.09;90.03;99846.13;5083806;28;20089;-67
2022/03/21 06:29:29;;;;;;;19.90;8.00;;;;;;;2.18;89.63;99843.81;5083735;28;20083;-67
2022/03/21 06:31:55;;;;;;;16.25;8.07;;;;;;;2.15;89.37;99848.03;5083746;28;20043;-67
2022/03/21 06:34:20;;;;;;;14.65;7.57;;;;;;;2.33;88.97;99853.81;5083837;28;20215;-67
2022/03/21 06:36:46;;;;;;;17.35;9.20;;;;;;;2.40;88.51;99852.31;5083719;28;20024;-67
2022/03/21 06:39:11;;;;;;;20.75;8.75;;;;;;;2.35;88.28;99857.38;5083641;28;20024;-67
2022/03/21 06:41:37;;;;;;;20.42;9.73;;;;;;;2.56;87.83;99863.22;5083626;28;20035;-67
2022/03/21 06:44:03;;;;;;;13.68;7.78;;;;;;;2.63;87.52;99860.00;5083586;28;20027;-67
2022/03/21 06:46:29;;;;;;;17.02;8.30;;;;;;;2.65;88.23;99868.72;5083599;28;20044;-67
2022/03/21 06:48:54;;;;;;;24.30;9.02;;;;;;;2.57;87.99;99859.81;5083492;28;20074;-67
2022/03/21 06:51:20;;;;;;;17.80;9.57;;;;;;;2.81;87.66;99863.16;5083637;28;20044;-67
2022/03/21 06:53:45;;;;;;;16.90;8.07;;;;;;;3.04;86.71;99863.88;5083523;28;20052;-67
2022/03/21 06:56:11;;;;;;;14.35;8.10;;;;;;;3.16;86.40;99872.03;5083506;28;20257;-67
2022/03/21 06:58:36;;;;;;;18.10;8.18;;;;;;;3.02;86.99;99871.63;5083496;28;20251;-67
2022/03/21 07:01:01;;;;;;;18.65;8.98;;;;;;;3.16;87.43;99878.09;5083480;28;20028;-67
2022/03/21 07:03:28;;;;;;;19.52;8.70;;;;;;;3.36;86.05;99882.16;5083440;28;20029;-67
2022/03/21 07:05:54;;;;;;;15.10;7.53;;;;;;;3.61;86.04;99887.22;5083507;28;20087;-67
2022/03/21 07:08:20;;;;;;;14.73;7.43;;;;;;;3.78;84.72;99888.59;5083328;28;20070;-67
2022/03/21 07:10:45;;;;;;;16.95;9.13;;;;;;;4.01;83.42;99892.69;5083340;28;20024;-67
2022/03/21 07:13:11;;;;;;;17.35;8.73;;;;;;;3.99;83.09;99893.50;5084774;28;20031;-67
2022/03/21 07:15:37;;;;;;;16.23;7.78;;;;;;;4.40;83.00;99895.44;5086836;28;20339;-67
2022/03/21 07:18:03;;;;;;;20.20;8.55;;;;;;;4.95;82.10;99897.59;5086976;28;20062;-67
2022/03/21 07:20:29;;;;;;;16.40;8.20;;;;;;;5.16;81.53;99898.09;5086951;28;20095;-67
2022/03/21 07:22:58;;;;;;;14.60;8.63;;;;;;;5.85;80.03;99904.78;5087161;28;20032;-67
2022/03/21 07:25:24;;;;;;;18.20;9.50;;;;;;;6.14;78.73;99901.03;5086810;28;20027;-67
2022/03/21 07:27:50;;;;;;;17.80;8.68;;;;;;;6.56;76.84;99901.75;5087020;28;20029;-67
2022/03/21 07:30:16;;;;;;;21.80;8.82;;;;;;;7.09;75.19;99903.44;5087019;28;20020;-67
2022/03/21 07:32:43;;;;;;;16.88;9.02;;;;;;;7.61;72.81;99911.16;5086741;28;20197;-67
2022/03/21 07:35:09;;;;;;;17.88;9.65;;;;;;;7.89;72.77;99913.28;5086644;28;20025;-67
2022/03/21 07:37:40;;;;;;;19.02;8.98;;;;;;;8.11;72.29;99904.78;5086605;28;20270;-67
2022/03/21 07:40:06;;;;;;;17.05;8.57;;;;;;;8.51;71.95;99909.56;5086580;28;20028;-67
2022/03/21 07:42:33;;;;;;;21.30;10.15;;;;;;;9.02;70.33;99921.38;5086558;28;20368;-67
2022/03/21 07:47:44;;;;;;;21.08;10.70;;;;;;;9.72;68.14;99926.16;5086413;28;20027;-67
2022/03/21 07:50:09;;;;;;;24.77;11.13;;;;;;;10.24;67.06;99925.50;5086394;28;20024;-67
2022/03/21 07:52:34;;;;;;;29.73;14.10;;;;;;;10.77;66.48;99927.34;5086376;28;20017;-67
2022/03/21 07:55:00;;;;;;;29.83;12.93;;;;;;;11.18;64.95;99932.59;5086248;28;20312;-68
2022/03/21 07:57:28;;;;;;;27.17;14.70;;;;;;;11.47;65.17;99930.78;5086276;28;20024;-68
2022/03/21 07:59:54;;;;;;;32.42;16.65;;;;;;;11.88;63.51;99928.03;5086231;28;20024;-68
2022/03/21 08:02:21;;;;;;;32.85;15.80;;;;;;;12.11;63.22;99932.31;5086145;28;20084;-68
2022/03/21 08:04:50;;;;;;;30.88;16.20;;;;;;;12.51;62.05;99936.50;5086067;28;20020;-68
2022/03/21 08:07:16;;;;;;;33.80;16.75;;;;;;;12.63;61.97;99931.13;5086090;28;20028;-68
2022/03/21 08:09:41;;;;;;;40.72;19.48;;;;;;;12.95;62.39;99933.53;5086187;28;20058;-68
2022/03/21 08:12:07;;;;;;;44.40;19.25;;;;;;;13.12;62.12;99928.13;5085994;28;20027;-68
2022/03/21 08:14:33;;;;;;;31.75;16.52;;;;;;;13.59;61.17;99933.81;5085739;28;20115;-68
2022/03/21 08:16:59;;;;;;;33.03;15.55;;;;;;;14.20;60.04;99934.81;5085912;28;20024;-67
2022/03/21 08:19:25;;;;;;;28.42;15.25;;;;;;;14.58;58.07;99924.59;5085929;28;20087;-67
2022/03/21 08:21:54;;;;;;;25.58;13.98;;;;;;;14.80;57.55;99926.03;5085815;28;20020;-67
2022/03/21 08:24:21;;;;;;;25.30;13.82;;;;;;;14.22;58.28;99930.41;5085650;28;20024;-67
2022/03/21 08:26:47;;;;;;;17.40;11.25;;;;;;;14.69;57.59;99930.63;5085952;28;20028;-67
2022/03/21 08:29:13;;;;;;;18.88;11.00;;;;;;;15.41;56.95;99926.75;5085549;28;20328;-67
2022/03/21 08:31:38;;;;;;;16.95;9.73;;;;;;;16.20;54.54;99932.25;5085773;28;20363;-67
2022/03/21 08:34:04;;;;;;;23.08;11.10;;;;;;;16.80;54.80;99936.22;5085828;28;20044;-67
2022/03/21 08:36:30;;;;;;;21.90;11.20;;;;;;;17.12;52.13;99932.81;5085547;28;20016;-68
2022/03/21 08:38:55;;;;;;;20.40;9.88;;;;;;;17.48;51.08;99946.97;5085468;28;20020;-68
2022/03/21 08:41:21;;;;;;;19.60;9.88;;;;;;;17.68;51.52;99940.19;5085458;28;20077;-68
2022/03/21 08:43:47;;;;;;;16.05;10.38;;;;;;;18.22;50.13;99941.31;5085359;28;20028;-68
2022/03/21 08:46:13;;;;;;;19.27;10.50;;;;;;;18.07;50.65;99943.56;5085333;28;20062;-68
2022/03/21 08:51:23;;;;;;;18.48;10.13;;;;;;;19.01;47.54;99945.06;5085253;28;20028;-68
2022/03/21 08:53:48;;;;;;;18.85;9.82;;;;;;;19.22;47.80;99947.06;5085424;28;20371;-68
2022/03/21 08:56:14;;;;;;;21.63;12.23;;;;;;;19.48;44.46;99941.72;5085128;28;20025;-67
2022/03/21 08:58:39;;;;;;;20.08;13.13;;;;;;;19.17;45.87;99933.84;5085103;28;20087;-67
2022/03/21 09:01:05;;;;;;;17.42;10.95;;;;;;;19.44;46.15;99932.09;5085029;28;20034;-67
2022/03/21 09:03:30;;;;;;;18.85;11.13;;;;;;;19.79;44.72;99934.38;5085009;28;20316;-67
2022/03/21 09:05:56;;;;;;;17.02;9.93;;;;;;;19.98;44.10;99929.25;5085020;28;20030;-67
2022/03/21 09:08:21;;;;;;;13.43;7.93;;;;;;;20.17;42.24;99931.22;5084812;28;20091;-67
2022/03/21 09:10:48;;;;;;;18.23;10.60;;;;;;;19.95;41.67;99924.88;5084752;28;20197;-67
2022/03/21 09:13:13;;;;;;;14.45;6.88;;;;;;;20.23;39.45;99920.31;5085018;28;20024;-67
2022/03/21 09:15:39;;;;;;;16.38;7.18;;;;;;;20.68;40.45;99926.53;5084491;28;20071;-67
2022/03/21 09:18:04;;;;;;;9.80;6.57;;;;;;;20.92;40.24;99924.69;5084764;28;20354;-67
2022/03/21 09:20:30;;;;;;;12.02;7.07;;;;;;;20.49;41.17;99912.13;5084628;28;20031;-67
2022/03/21 09:22:57;;;;;;;14.38;7.60;;;;;;;20.22;38.97;99909.66;5084569;28;20035;-68
2022/03/21 09:25:23;;;;;;;13.48;7.15;;;;;;;19.95;40.77;99913.31;5084815;28;20049;-68
2022/03/21 09:27:49;;;;;;;16.70;7.13;;;;;;;19.66;39.71;99909.03;5084437;28;20355;-67
2022/03/21 09:30:14;;;;;;;12.07;6.95;;;;;;;19.87;39.96;99913.59;5084461;28;20135;-67
2022/03/21 09:32:40;;;;;;;13.52;6.82;;;;;;;20.43;38.34;99911.50;5084463;28;20316;-67
2022/03/21 09:35:06;;;;;;;13.80;7.55;;;;;;;20.20;40.39;99908.84;5084089;28;20028;-67
2022/03/21 09:37:35;;;;;;;11.55;7.13;;;;;;;20.34;39.13;99912.72;5084196;28;20224;-67
2022/03/21 09:40:01;;;;;;;14.55;7.47;;;;;;;21.14;38.16;99904.16;5084554;28;20042;-67
2022/03/21 09:42:26;;;;;;;12.93;6.90;;;;;;;21.39;37.33;99912.03;5084267;28;20324;-67
2022/03/21 09:44:55;;;;;;;14.18;6.40;;;;;;;21.37;37.60;99903.16;5084286;28;20317;-67
2022/03/21 09:50:11;;;;;;;14.60;7.22;;;;;;;20.95;36.88;99896.00;5084196;28;20047;-67
2022/03/21 09:52:38;;;;;;;10.32;5.78;;;;;;;20.58;38.28;99890.38;5084159;28;20028;-67
2022/03/21 09:55:05;;;;;;;12.73;5.82;;;;;;;20.34;39.87;99895.81;5084141;28;20028;-68
2022/03/21 09:57:31;;;;;;;9.93;5.38;;;;;;;21.06;37.49;99896.44;5084386;28;20047;-68
2022/03/21 09:59:57;;;;;;;10.25;5.97;;;;;;;21.10;37.96;99894.50;5084137;28;20024;-68
2022/03/21 10:02:24;;;;;;;9.95;4.78;;;;;;;21.55;37.65;99899.72;5084042;28;20020;-68
2022/03/21 10:04:50;;;;;;;9.57;5.00;;;;;;;21.39;38.57;99896.84;5084013;28;20320;-68
2022/03/21 10:07:24;;;;;;;11.45;5.43;;;;;;;21.54;37.02;99895.28;5083964;28;20017;-68
2022/03/21 10:10:10;;;;;;;8.95;4.95;;;;;;;21.26;37.67;99891.09;5084178;28;20094;-68
2022/03/21 10:12:36;;;;;;;9.68;5.45;;;;;;;21.23;38.24;99888.56;5083945;28;20024;-68
2022/03/21 10:15:10;;;;;;;8.18;4.68;;;;;;;21.58;37.85;99896.91;5083741;28;20060;-68
2022/03/21 10:17:36;;;;;;;9.57;4.88;;;;;;;21.28;38.46;99889.25;5084146;28;20194;-67
2022/03/21 10:20:04;;;;;;;8.25;4.53;;;;;;;21.46;37.85;99892.94;5083922;28;20320;-68
2022/03/21 10:22:33;;;;;;;8.10;4.25;;;;;;;21.59;37.62;99894.16;5083811;28;20080;-68
2022/03/21 10:25:06;;;;;;;5.50;3.83;;;;;;;21.13;38.10;99883.66;5083849;28;20343;-68
2022/03/21 10:27:43;;;;;;;8.65;4.63;;;;;;;21.45;37.29;99879.63;5084085;28;20016;-68
2022/03/21 10:30:10;;;;;;;8.65;4.35;;;;;;;21.41;37.80;99878.00;5083766;28;20197;-68
2022/03/21 10:32:54;;;;;;;7.53;4.07;;;;;;;21.45;37.91;99884.97;5083701;28;20311;-68
2022/03/21 10:35:26;;;;;;;9.20;4.70;;;;;;;21.14;37.53;99880.91;5083760;28;20028;-68
2022/03/21 10:37:52;;;;;;;8.40;3.70;;;;;;;21.22;38.27;99884.16;5083882;28;20028;-68
2022/03/21 10:40:27;;;;;;;8.45;4.50;;;;;;;21.09;39.10;99877.56;5083595;28;20029;-68
2022/03/21 10:42:59;;;;;;;6.60;4.30;;;;;;;21.33;36.41;99885.50;5083661;28;20020;-68
2022/03/21 10:45:37;;;;;;;6.88;4.15;;;;;;;21.62;37.81;99887.78;5083663;28;20055;-68
2022/03/21 10:48:10;;;;;;;7.25;4.40;;;;;;;21.52;36.20;99883.75;5084804;28;20054;-68
2022/03/21 10:50:40;;;;;;;8.15;4.32;;;;;;;21.53;35.84;99877.44;5087816;28;20027;-68
2022/03/21 10:53:11;;;;;;;7.15;3.88;;;;;;;21.65;36.46;99876.91;5087804;28;20020;-68
2022/03/21 10:55:38;;;;;;;12.20;4.70;;;;;;;21.35;36.55;99873.78;5087421;28;20016;-68
2022/03/21 10:58:04;;;;;;;7.30;4.30;;;;;;;21.45;37.69;99868.91;5087375;28;20062;-68
2022/03/21 11:00:30;;;;;;;8.43;3.88;;;;;;;21.54;37.70;99874.72;5087303;28;20024;-68
2022/03/21 11:03:14;;;;;;;7.72;4.93;;;;;;;21.04;37.31;99865.31;5087311;28;20339;-68
2022/03/21 11:05:48;;;;;;;9.10;4.45;;;;;;;21.20;37.14;99859.22;5087191;28;20020;-68
2022/03/21 11:08:17;;;;;;;7.78;4.75;;;;;;;20.73;38.02;99856.78;5087173;28;20035;-68
2022/03/21 11:10:43;;;;;;;6.20;3.80;;;;;;;21.04;38.20;99862.66;5087317;28;20269;-68
2022/03/21 11:13:09;;;;;;;7.10;4.40;;;;;;;21.09;36.91;99849.91;5087118;28;20024;-68
2022/03/21 11:15:37;;;;;;;6.88;3.92;;;;;;;21.18;36.99;99855.78;5086914;28;20055;-68
2022/03/21 11:18:05;;;;;;;8.18;4.88;;;;;;;21.14;37.80;99848.78;5087281;28;20024;-68
2022/03/21 11:20:31;;;;;;;11.95;5.22;;;;;;;21.11;39.14;99854.25;5087001;28;20024;-68
2022/03/21 11:22:57;;;;;;;10.90;5.15;;;;;;;21.04;36.98;99844.75;5086926;28;20069;-68
2022/03/21 11:25:32;;;;;;;15.57;5.15;;;;;;;20.97;38.53;99840.59;5087163;28;20047;-68
2022/03/21 11:28:15;;;;;;;10.02;5.05;;;;;;;20.61;37.59;99844.78;5086750;28;20254;-68
2022/03/21 11:31:18;;;;;;;8.65;4.53;;;;;;;20.60;40.43;99836.81;5087056;28;20312;-68
2022/03/21 11:34:03;;;;;;;8.15;4.68;;;;;;;20.77;38.84;99829.84;5086712;28;20248;-68
2022/03/21 11:36:31;;;;;;;9.65;3.95;;;;;;;20.82;38.96;99835.84;5086802;28;20025;-68
2022/03/21 11:39:02;;;;;;;7.75;4.70;;;;;;;20.95;38.85;99837.09;5086625;28;20316;-68
2022/03/21 11:41:31;;;;;;;7.10;4.63;;;;;;;20.83;37.82;99832.25;5086607;28;20024;-68
2022/03/21 11:44:05;;;;;;;10.07;4.88;;;;;;;20.57;39.57;99829.75;5086555;28;20024;-68
2022/03/21 11:46:36;;;;;;;7.72;5.07;;;;;;;20.06;39.97;99826.44;5086521;28;20391;-68
2022/03/21 11:49:03;;;;;;;8.30;4.75;;;;;;;19.59;40.44;99811.38;5086406;28;20088;-68
2022/03/21 11:51:37;;;;;;;8.15;5.03;;;;;;;19.70;40.32;99822.50;5086422;28;20254;-68
2022/03/21 11:54:04;;;;;;;8.20;4.47;;;;;;;19.86;40.27;99815.66;5086365;28;20044;-68
2022/03/21 11:56:44;;;;;;;9.77;5.47;;;;;;;19.84;39.37;99812.16;5086582;28;20362;-68